sensor_id;sensor_type;location;lat;lon;timestamp;temperature;humidity
50067;DHT22;35952;52.524;13.340;2023-08-24T00:02:00;20.70;99.90
50067;DHT22;35952;52.524;13.340;2023-08-24T00:04:26;20.80;99.90
50067;DHT22;35952;52.524;13.340;2023-08-24T00:06:52;20.80;99.90
50067;DHT22;35952;52.524;13.340;2023-08-24T00:09:17;20.70;99.90
50067;DHT22;35952;52.524;13.340;2023-08-24T00:11:43;20.70;99.90
50067;DHT22;35952;52.524;13.340;2023-08-24T00:14:09;20.70;99.90
50067;DHT22;35952;52.524;13.340;2023-08-24T00:16:34;20.70;99.90
50067;DHT22;35952;52.524;13.340;2023-08-24T00:19:00;20.60;99.90
50067;DHT22;35952;52.524;13.340;2023-08-24T00:21:25;20.50;99.90
50067;DHT22;35952;52.524;13.340;2023-08-24T00:23:51;20.50;99.90
50067;DHT22;35952;52.524;13.340;2023-08-24T00:26:17;20.40;99.90
50067;DHT22;35952;52.524;13.340;2023-08-24T00:28:42;20.30;99.90
50067;DHT22;35952;52.524;13.340;2023-08-24T00:31:08;20.30;99.90
50067;DHT22;35952;52.524;13.340;2023-08-24T00:33:34;20.30;99.90
50067;DHT22;35952;52.524;13.340;2023-08-24T00:36:03;20.20;99.90
50067;DHT22;35952;52.524;13.340;2023-08-24T00:38:29;20.10;99.90
50067;DHT22;35952;52.524;13.340;2023-08-24T00:40:55;20.10;99.90
50067;DHT22;35952;52.524;13.340;2023-08-24T00:43:21;20.20;99.90
50067;DHT22;35952;52.524;13.340;2023-08-24T00:45:51;20.30;99.90
50067;DHT22;35952;52.524;13.340;2023-08-24T00:48:18;20.10;99.90
50067;DHT22;35952;52.524;13.340;2023-08-24T00:50:44;20.10;99.90
50067;DHT22;35952;52.524;13.340;2023-08-24T00:53:09;20.10;99.90
50067;DHT22;35952;52.524;13.340;2023-08-24T00:55:35;20.00;99.90
50067;DHT22;35952;52.524;13.340;2023-08-24T00:58:02;20.00;99.90
50067;DHT22;35952;52.524;13.340;2023-08-24T01:00:28;20.00;99.90
50067;DHT22;35952;52.524;13.340;2023-08-24T01:02:53;20.00;99.90
50067;DHT22;35952;52.524;13.340;2023-08-24T01:05:19;19.90;99.90
50067;DHT22;35952;52.524;13.340;2023-08-24T01:07:45;19.90;99.90
50067;DHT22;35952;52.524;13.340;2023-08-24T01:10:10;20.00;99.90
50067;DHT22;35952;52.524;13.340;2023-08-24T01:12:48;19.90;99.90
50067;DHT22;35952;52.524;13.340;2023-08-24T01:18:10;19.80;99.90
50067;DHT22;35952;52.524;13.340;2023-08-24T01:20:37;19.80;99.90
50067;DHT22;35952;52.524;13.340;2023-08-24T01:23:32;19.80;99.90
50067;DHT22;35952;52.524;13.340;2023-08-24T01:26:18;19.90;99.90
50067;DHT22;35952;52.524;13.340;2023-08-24T01:28:45;19.80;99.90
50067;DHT22;35952;52.524;13.340;2023-08-24T01:31:13;19.80;99.90
50067;DHT22;35952;52.524;13.340;2023-08-24T01:33:39;19.80;99.90
50067;DHT22;35952;52.524;13.340;2023-08-24T01:36:06;19.70;99.90
50067;DHT22;35952;52.524;13.340;2023-08-24T01:38:31;19.60;99.90
50067;DHT22;35952;52.524;13.340;2023-08-24T01:41:25;19.60;99.90
50067;DHT22;35952;52.524;13.340;2023-08-24T01:43:54;19.80;99.90
50067;DHT22;35952;52.524;13.340;2023-08-24T01:46:22;19.70;99.90
50067;DHT22;35952;52.524;13.340;2023-08-24T01:48:47;19.80;99.90
50067;DHT22;35952;52.524;13.340;2023-08-24T01:51:14;19.80;99.90
50067;DHT22;35952;52.524;13.340;2023-08-24T01:53:40;19.70;99.90
50067;DHT22;35952;52.524;13.340;2023-08-24T01:56:14;19.80;99.90
50067;DHT22;35952;52.524;13.340;2023-08-24T01:58:40;19.90;99.90
50067;DHT22;35952;52.524;13.340;2023-08-24T02:01:07;19.90;99.90
50067;DHT22;35952;52.524;13.340;2023-08-24T02:03:33;19.90;99.90
50067;DHT22;35952;52.524;13.340;2023-08-24T02:05:58;19.90;99.90
50067;DHT22;35952;52.524;13.340;2023-08-24T02:08:24;19.80;99.90
50067;DHT22;35952;52.524;13.340;2023-08-24T02:10:49;19.80;99.90
50067;DHT22;35952;52.524;13.340;2023-08-24T02:13:15;19.80;99.90
50067;DHT22;35952;52.524;13.340;2023-08-24T02:15:40;19.80;99.90
50067;DHT22;35952;52.524;13.340;2023-08-24T02:18:07;19.80;99.90
50067;DHT22;35952;52.524;13.340;2023-08-24T02:20:36;19.90;99.90
50067;DHT22;35952;52.524;13.340;2023-08-24T02:23:03;19.90;99.90
50067;DHT22;35952;52.524;13.340;2023-08-24T02:25:29;20.00;99.90
50067;DHT22;35952;52.524;13.340;2023-08-24T02:27:54;20.00;99.90
50067;DHT22;35952;52.524;13.340;2023-08-24T02:30:20;20.10;99.90
50067;DHT22;35952;52.524;13.340;2023-08-24T02:32:45;20.10;99.90
50067;DHT22;35952;52.524;13.340;2023-08-24T02:35:11;20.00;99.90
50067;DHT22;35952;52.524;13.340;2023-08-24T02:37:36;20.10;99.90
50067;DHT22;35952;52.524;13.340;2023-08-24T02:40:02;20.10;99.90
50067;DHT22;35952;52.524;13.340;2023-08-24T02:42:30;20.10;99.90
50067;DHT22;35952;52.524;13.340;2023-08-24T02:44:57;20.20;99.90
50067;DHT22;35952;52.524;13.340;2023-08-24T02:47:22;20.00;99.90
50067;DHT22;35952;52.524;13.340;2023-08-24T02:49:48;20.00;99.90
50067;DHT22;35952;52.524;13.340;2023-08-24T02:52:13;20.00;99.90
50067;DHT22;35952;52.524;13.340;2023-08-24T02:54:39;19.90;99.90
50067;DHT22;35952;52.524;13.340;2023-08-24T02:57:05;20.00;99.90
50067;DHT22;35952;52.524;13.340;2023-08-24T02:59:30;20.10;99.90
50067;DHT22;35952;52.524;13.340;2023-08-24T03:01:55;20.10;99.90
50067;DHT22;35952;52.524;13.340;2023-08-24T03:04:21;20.10;99.90
50067;DHT22;35952;52.524;13.340;2023-08-24T03:06:47;20.00;99.90
50067;DHT22;35952;52.524;13.340;2023-08-24T03:09:12;20.10;99.90
50067;DHT22;35952;52.524;13.340;2023-08-24T03:11:38;20.10;99.90
50067;DHT22;35952;52.524;13.340;2023-08-24T03:14:04;20.00;99.90
50067;DHT22;35952;52.524;13.340;2023-08-24T03:16:29;20.00;99.90
50067;DHT22;35952;52.524;13.340;2023-08-24T03:18:55;20.00;99.90
50067;DHT22;35952;52.524;13.340;2023-08-24T03:21:20;20.00;99.90
50067;DHT22;35952;52.524;13.340;2023-08-24T03:23:46;20.00;99.90
50067;DHT22;35952;52.524;13.340;2023-08-24T03:26:12;20.10;99.90
50067;DHT22;35952;52.524;13.340;2023-08-24T03:28:37;20.10;99.90
50067;DHT22;35952;52.524;13.340;2023-08-24T03:31:03;20.20;99.90
50067;DHT22;35952;52.524;13.340;2023-08-24T03:33:28;20.20;99.90
50067;DHT22;35952;52.524;13.340;2023-08-24T03:35:54;20.20;99.90
50067;DHT22;35952;52.524;13.340;2023-08-24T03:38:20;20.20;99.90
50067;DHT22;35952;52.524;13.340;2023-08-24T03:40:45;20.20;99.90
50067;DHT22;35952;52.524;13.340;2023-08-24T03:43:11;20.10;99.90
50067;DHT22;35952;52.524;13.340;2023-08-24T03:45:36;20.10;99.90
50067;DHT22;35952;52.524;13.340;2023-08-24T03:48:02;20.00;99.90
50067;DHT22;35952;52.524;13.340;2023-08-24T03:50:27;20.00;99.90
50067;DHT22;35952;52.524;13.340;2023-08-24T03:52:54;20.10;99.90
50067;DHT22;35952;52.524;13.340;2023-08-24T03:55:20;20.20;99.90
50067;DHT22;35952;52.524;13.340;2023-08-24T03:57:46;20.10;99.90
50067;DHT22;35952;52.524;13.340;2023-08-24T04:00:12;20.10;99.90
50067;DHT22;35952;52.524;13.340;2023-08-24T04:02:38;20.10;99.90
50067;DHT22;35952;52.524;13.340;2023-08-24T04:05:04;20.10;99.90
50067;DHT22;35952;52.524;13.340;2023-08-24T04:07:29;20.20;99.90
50067;DHT22;35952;52.524;13.340;2023-08-24T04:09:55;20.20;99.90
50067;DHT22;35952;52.524;13.340;2023-08-24T04:12:20;20.30;99.90
50067;DHT22;35952;52.524;13.340;2023-08-24T04:14:46;20.30;99.90
50067;DHT22;35952;52.524;13.340;2023-08-24T04:17:11;20.40;99.90
50067;DHT22;35952;52.524;13.340;2023-08-24T04:19:40;20.40;99.90
50067;DHT22;35952;52.524;13.340;2023-08-24T04:22:05;20.40;99.90
50067;DHT22;35952;52.524;13.340;2023-08-24T04:24:37;20.50;99.90
50067;DHT22;35952;52.524;13.340;2023-08-24T04:27:02;20.50;99.90
50067;DHT22;35952;52.524;13.340;2023-08-24T04:29:28;20.50;99.90
50067;DHT22;35952;52.524;13.340;2023-08-24T04:31:53;20.50;99.90
50067;DHT22;35952;52.524;13.340;2023-08-24T04:34:19;20.60;99.90
50067;DHT22;35952;52.524;13.340;2023-08-24T04:36:44;20.70;99.90
50067;DHT22;35952;52.524;13.340;2023-08-24T04:39:10;20.70;99.90
50067;DHT22;35952;52.524;13.340;2023-08-24T04:41:36;20.60;99.90
50067;DHT22;35952;52.524;13.340;2023-08-24T04:44:02;20.60;99.90
50067;DHT22;35952;52.524;13.340;2023-08-24T04:46:27;20.70;99.90
50067;DHT22;35952;52.524;13.340;2023-08-24T04:48:53;20.70;99.90
50067;DHT22;35952;52.524;13.340;2023-08-24T04:51:18;20.70;99.90
50067;DHT22;35952;52.524;13.340;2023-08-24T04:53:44;20.60;99.90
50067;DHT22;35952;52.524;13.340;2023-08-24T04:56:09;20.60;99.90
50067;DHT22;35952;52.524;13.340;2023-08-24T04:58:35;20.50;99.90
50067;DHT22;35952;52.524;13.340;2023-08-24T05:01:00;20.70;99.90
50067;DHT22;35952;52.524;13.340;2023-08-24T05:03:26;20.80;99.90
50067;DHT22;35952;52.524;13.340;2023-08-24T05:05:51;20.70;99.90
50067;DHT22;35952;52.524;13.340;2023-08-24T05:08:17;20.90;99.90
50067;DHT22;35952;52.524;13.340;2023-08-24T05:10:43;20.90;99.90
50067;DHT22;35952;52.524;13.340;2023-08-24T05:13:08;21.00;99.90
50067;DHT22;35952;52.524;13.340;2023-08-24T05:15:34;21.00;99.90
50067;DHT22;35952;52.524;13.340;2023-08-24T05:17:59;21.00;99.90
50067;DHT22;35952;52.524;13.340;2023-08-24T05:20:28;21.30;99.90
50067;DHT22;35952;52.524;13.340;2023-08-24T05:22:54;21.30;99.90
50067;DHT22;35952;52.524;13.340;2023-08-24T05:25:21;21.50;99.90
50067;DHT22;35952;52.524;13.340;2023-08-24T05:27:46;21.60;99.90
50067;DHT22;35952;52.524;13.340;2023-08-24T05:30:12;21.90;99.90
50067;DHT22;35952;52.524;13.340;2023-08-24T05:32:38;23.10;99.90
50067;DHT22;35952;52.524;13.340;2023-08-24T05:35:07;23.50;99.90
50067;DHT22;35952;52.524;13.340;2023-08-24T05:37:33;24.00;99.90
50067;DHT22;35952;52.524;13.340;2023-08-24T05:39:59;24.60;99.90
50067;DHT22;35952;52.524;13.340;2023-08-24T05:42:25;24.50;99.90
50067;DHT22;35952;52.524;13.340;2023-08-24T05:44:51;25.60;99.90
50067;DHT22;35952;52.524;13.340;2023-08-24T05:47:16;25.90;99.90
50067;DHT22;35952;52.524;13.340;2023-08-24T05:49:42;25.80;99.90
50067;DHT22;35952;52.524;13.340;2023-08-24T05:52:07;24.90;99.90
50067;DHT22;35952;52.524;13.340;2023-08-24T05:54:36;25.20;99.90
50067;DHT22;35952;52.524;13.340;2023-08-24T05:57:01;25.80;99.90
50067;DHT22;35952;52.524;13.340;2023-08-24T05:59:27;25.90;99.90
50067;DHT22;35952;52.524;13.340;2023-08-24T06:01:53;26.70;99.90
50067;DHT22;35952;52.524;13.340;2023-08-24T06:04:18;26.40;99.20
50067;DHT22;35952;52.524;13.340;2023-08-24T06:06:44;26.40;98.80
50067;DHT22;35952;52.524;13.340;2023-08-24T06:09:10;27.70;97.10
50067;DHT22;35952;52.524;13.340;2023-08-24T06:11:35;28.90;94.50
50067;DHT22;35952;52.524;13.340;2023-08-24T06:14:01;29.80;91.90
50067;DHT22;35952;52.524;13.340;2023-08-24T06:16:27;30.70;86.90
50067;DHT22;35952;52.524;13.340;2023-08-24T06:18:53;30.40;82.30
50067;DHT22;35952;52.524;13.340;2023-08-24T06:21:18;30.70;80.30
50067;DHT22;35952;52.524;13.340;2023-08-24T06:23:44;31.20;78.20
50067;DHT22;35952;52.524;13.340;2023-08-24T06:26:10;31.10;77.00
50067;DHT22;35952;52.524;13.340;2023-08-24T06:28:36;30.60;77.40
50067;DHT22;35952;52.524;13.340;2023-08-24T06:31:02;30.40;75.60
50067;DHT22;35952;52.524;13.340;2023-08-24T06:33:28;29.80;77.80
50067;DHT22;35952;52.524;13.340;2023-08-24T06:35:57;29.10;78.90
50067;DHT22;35952;52.524;13.340;2023-08-24T06:38:22;28.90;79.90
50067;DHT22;35952;52.524;13.340;2023-08-24T06:40:48;28.80;80.70
50067;DHT22;35952;52.524;13.340;2023-08-24T06:43:13;28.50;81.10
50067;DHT22;35952;52.524;13.340;2023-08-24T06:45:40;28.10;83.10
50067;DHT22;35952;52.524;13.340;2023-08-24T06:48:06;27.60;84.40
50067;DHT22;35952;52.524;13.340;2023-08-24T06:50:35;27.20;85.50
50067;DHT22;35952;52.524;13.340;2023-08-24T06:53:02;26.70;86.00
50067;DHT22;35952;52.524;13.340;2023-08-24T06:55:28;26.40;87.70
50067;DHT22;35952;52.524;13.340;2023-08-24T06:57:54;26.20;88.90
50067;DHT22;35952;52.524;13.340;2023-08-24T07:00:20;26.20;90.40
50067;DHT22;35952;52.524;13.340;2023-08-24T07:02:47;26.10;90.60
50067;DHT22;35952;52.524;13.340;2023-08-24T07:05:12;26.00;90.80
50067;DHT22;35952;52.524;13.340;2023-08-24T07:07:38;26.00;90.80
50067;DHT22;35952;52.524;13.340;2023-08-24T07:10:04;26.00;90.90
50067;DHT22;35952;52.524;13.340;2023-08-24T07:12:29;26.00;91.00
50067;DHT22;35952;52.524;13.340;2023-08-24T07:14:55;26.00;91.30
50067;DHT22;35952;52.524;13.340;2023-08-24T07:17:20;26.00;91.30
50067;DHT22;35952;52.524;13.340;2023-08-24T07:19:46;26.00;91.10
50067;DHT22;35952;52.524;13.340;2023-08-24T07:22:11;25.90;92.30
50067;DHT22;35952;52.524;13.340;2023-08-24T07:24:37;26.10;91.60
50067;DHT22;35952;52.524;13.340;2023-08-24T07:27:03;26.10;91.00
50067;DHT22;35952;52.524;13.340;2023-08-24T07:29:31;26.10;90.70
50067;DHT22;35952;52.524;13.340;2023-08-24T07:31:57;26.40;90.50
50067;DHT22;35952;52.524;13.340;2023-08-24T07:34:22;27.00;89.90
50067;DHT22;35952;52.524;13.340;2023-08-24T07:36:48;27.80;87.60
50067;DHT22;35952;52.524;13.340;2023-08-24T07:39:14;28.90;84.50
50067;DHT22;35952;52.524;13.340;2023-08-24T07:41:41;30.00;81.30
50067;DHT22;35952;52.524;13.340;2023-08-24T07:44:07;30.60;77.20
50067;DHT22;35952;52.524;13.340;2023-08-24T07:46:32;30.20;78.30
50067;DHT22;35952;52.524;13.340;2023-08-24T07:48:58;30.00;77.10
50067;DHT22;35952;52.524;13.340;2023-08-24T07:51:23;30.00;78.20
50067;DHT22;35952;52.524;13.340;2023-08-24T07:53:49;29.30;78.30
50067;DHT22;35952;52.524;13.340;2023-08-24T07:56:17;29.10;80.30
50067;DHT22;35952;52.524;13.340;2023-08-24T07:58:43;28.90;82.30
50067;DHT22;35952;52.524;13.340;2023-08-24T08:01:08;28.60;85.00
50067;DHT22;35952;52.524;13.340;2023-08-24T08:03:34;28.60;82.70
50067;DHT22;35952;52.524;13.340;2023-08-24T08:06:01;28.50;82.60
50067;DHT22;35952;52.524;13.340;2023-08-24T08:08:26;28.30;83.80
50067;DHT22;35952;52.524;13.340;2023-08-24T08:10:59;28.10;85.10
50067;DHT22;35952;52.524;13.340;2023-08-24T08:13:27;27.70;85.30
50067;DHT22;35952;52.524;13.340;2023-08-24T08:15:53;27.60;86.00
50067;DHT22;35952;52.524;13.340;2023-08-24T08:18:18;27.40;84.80
50067;DHT22;35952;52.524;13.340;2023-08-24T08:20:44;27.30;87.60
50067;DHT22;35952;52.524;13.340;2023-08-24T08:23:09;27.20;87.20
50067;DHT22;35952;52.524;13.340;2023-08-24T08:25:35;27.10;87.80
50067;DHT22;35952;52.524;13.340;2023-08-24T08:28:00;27.00;89.20
50067;DHT22;35952;52.524;13.340;2023-08-24T08:30:26;26.90;88.90
50067;DHT22;35952;52.524;13.340;2023-08-24T08:32:51;26.60;87.10
50067;DHT22;35952;52.524;13.340;2023-08-24T08:35:18;26.30;88.50
50067;DHT22;35952;52.524;13.340;2023-08-24T08:37:44;26.00;90.30
50067;DHT22;35952;52.524;13.340;2023-08-24T08:40:11;25.80;90.50
50067;DHT22;35952;52.524;13.340;2023-08-24T08:42:37;25.70;90.10
50067;DHT22;35952;52.524;13.340;2023-08-24T08:45:08;25.60;90.60
50067;DHT22;35952;52.524;13.340;2023-08-24T08:47:34;25.40;90.70
50067;DHT22;35952;52.524;13.340;2023-08-24T08:50:01;25.40;90.40
50067;DHT22;35952;52.524;13.340;2023-08-24T08:52:28;25.30;91.10
50067;DHT22;35952;52.524;13.340;2023-08-24T08:54:53;25.30;91.40
50067;DHT22;35952;52.524;13.340;2023-08-24T08:57:20;25.20;91.70
50067;DHT22;35952;52.524;13.340;2023-08-24T08:59:47;25.00;92.70
50067;DHT22;35952;52.524;13.340;2023-08-24T09:02:16;24.90;91.90
50067;DHT22;35952;52.524;13.340;2023-08-24T09:04:42;25.10;91.20
50067;DHT22;35952;52.524;13.340;2023-08-24T09:07:10;25.10;90.70
50067;DHT22;35952;52.524;13.340;2023-08-24T09:09:38;25.20;90.30
50067;DHT22;35952;52.524;13.340;2023-08-24T09:12:05;25.40;90.70
50067;DHT22;35952;52.524;13.340;2023-08-24T09:14:31;25.90;90.60
50067;DHT22;35952;52.524;13.340;2023-08-24T09:16:56;26.40;89.60
50067;DHT22;35952;52.524;13.340;2023-08-24T09:19:28;26.60;89.10
50067;DHT22;35952;52.524;13.340;2023-08-24T09:21:57;26.30;88.00
50067;DHT22;35952;52.524;13.340;2023-08-24T09:24:32;26.20;86.80
50067;DHT22;35952;52.524;13.340;2023-08-24T09:26:59;25.90;87.00
50067;DHT22;35952;52.524;13.340;2023-08-24T09:29:24;26.20;87.00
50067;DHT22;35952;52.524;13.340;2023-08-24T09:31:51;26.70;87.40
50067;DHT22;35952;52.524;13.340;2023-08-24T09:34:20;27.10;87.20
50067;DHT22;35952;52.524;13.340;2023-08-24T09:36:46;27.50;83.60
50067;DHT22;35952;52.524;13.340;2023-08-24T09:39:11;27.80;84.50
50067;DHT22;35952;52.524;13.340;2023-08-24T09:41:39;28.00;82.10
50067;DHT22;35952;52.524;13.340;2023-08-24T09:44:05;27.70;83.00
50067;DHT22;35952;52.524;13.340;2023-08-24T09:46:31;27.30;82.50
50067;DHT22;35952;52.524;13.340;2023-08-24T09:48:56;27.50;82.10
50067;DHT22;35952;52.524;13.340;2023-08-24T09:51:26;27.70;83.10
50067;DHT22;35952;52.524;13.340;2023-08-24T09:53:53;27.90;80.60
50067;DHT22;35952;52.524;13.340;2023-08-24T09:56:22;27.60;80.40
50067;DHT22;35952;52.524;13.340;2023-08-24T09:58:50;27.60;79.60
50067;DHT22;35952;52.524;13.340;2023-08-24T10:01:17;27.80;79.50
50067;DHT22;35952;52.524;13.340;2023-08-24T10:03:44;28.00;79.10
50067;DHT22;35952;52.524;13.340;2023-08-24T10:06:10;28.00;79.00
50067;DHT22;35952;52.524;13.340;2023-08-24T10:08:39;28.00;79.80
50067;DHT22;35952;52.524;13.340;2023-08-24T10:11:10;27.90;79.20
50067;DHT22;35952;52.524;13.340;2023-08-24T10:13:39;27.90;79.60
50067;DHT22;35952;52.524;13.340;2023-08-24T10:16:07;27.80;81.00
50067;DHT22;35952;52.524;13.340;2023-08-24T10:18:33;27.80;81.40
50067;DHT22;35952;52.524;13.340;2023-08-24T10:21:00;28.00;79.90
50067;DHT22;35952;52.524;13.340;2023-08-24T10:23:28;28.40;77.80
50067;DHT22;35952;52.524;13.340;2023-08-24T10:25:55;28.70;77.30
50067;DHT22;35952;52.524;13.340;2023-08-24T10:28:21;28.80;78.30
50067;DHT22;35952;52.524;13.340;2023-08-24T10:30:48;28.90;79.60
50067;DHT22;35952;52.524;13.340;2023-08-24T10:33:15;28.30;77.60
50067;DHT22;35952;52.524;13.340;2023-08-24T10:35:41;28.30;79.30
50067;DHT22;35952;52.524;13.340;2023-08-24T10:38:07;28.30;79.80
50067;DHT22;35952;52.524;13.340;2023-08-24T10:40:34;28.50;81.00
50067;DHT22;35952;52.524;13.340;2023-08-24T10:43:03;28.80;78.60
50067;DHT22;35952;52.524;13.340;2023-08-24T10:45:58;30.10;74.10
50067;DHT22;35952;52.524;13.340;2023-08-24T10:48:25;31.60;71.10
50067;DHT22;35952;52.524;13.340;2023-08-24T10:51:23;32.00;68.80
50067;DHT22;35952;52.524;13.340;2023-08-24T10:56:38;31.00;70.40
50067;DHT22;35952;52.524;13.340;2023-08-24T10:59:12;30.40;72.10
50067;DHT22;35952;52.524;13.340;2023-08-24T11:01:40;30.30;72.40
50067;DHT22;35952;52.524;13.340;2023-08-24T11:04:06;30.30;72.10
50067;DHT22;35952;52.524;13.340;2023-08-24T11:06:50;30.30;72.60
50067;DHT22;35952;52.524;13.340;2023-08-24T11:09:15;30.20;71.80
50067;DHT22;35952;52.524;13.340;2023-08-24T11:11:42;29.70;74.50
50067;DHT22;35952;52.524;13.340;2023-08-24T11:14:13;30.00;73.50
50067;DHT22;35952;52.524;13.340;2023-08-24T11:16:48;30.50;72.30
50067;DHT22;35952;52.524;13.340;2023-08-24T11:19:15;31.90;68.30
50067;DHT22;35952;52.524;13.340;2023-08-24T11:21:42;33.00;65.10
50067;DHT22;35952;52.524;13.340;2023-08-24T11:24:09;33.90;63.80
50067;DHT22;35952;52.524;13.340;2023-08-24T11:26:43;33.90;61.70
50067;DHT22;35952;52.524;13.340;2023-08-24T11:29:09;33.30;62.30
50067;DHT22;35952;52.524;13.340;2023-08-24T11:31:35;32.40;64.70
50067;DHT22;35952;52.524;13.340;2023-08-24T11:34:01;31.80;65.60
50067;DHT22;35952;52.524;13.340;2023-08-24T11:36:28;31.20;67.40
50067;DHT22;35952;52.524;13.340;2023-08-24T11:38:57;30.70;67.30
50067;DHT22;35952;52.524;13.340;2023-08-24T11:41:23;30.30;68.70
50067;DHT22;35952;52.524;13.340;2023-08-24T11:43:49;30.00;69.30
50067;DHT22;35952;52.524;13.340;2023-08-24T11:46:17;29.80;71.00
50067;DHT22;35952;52.524;13.340;2023-08-24T11:48:44;29.60;71.30
50067;DHT22;35952;52.524;13.340;2023-08-24T11:51:10;29.40;70.30
50067;DHT22;35952;52.524;13.340;2023-08-24T11:53:42;29.20;71.40
50067;DHT22;35952;52.524;13.340;2023-08-24T11:56:09;29.10;72.70
50067;DHT22;35952;52.524;13.340;2023-08-24T11:58:40;29.10;72.70
50067;DHT22;35952;52.524;13.340;2023-08-24T12:01:08;29.10;73.30
50067;DHT22;35952;52.524;13.340;2023-08-24T12:03:35;29.30;72.50
50067;DHT22;35952;52.524;13.340;2023-08-24T12:06:02;29.80;73.30
50067;DHT22;35952;52.524;13.340;2023-08-24T12:08:29;30.10;71.60
50067;DHT22;35952;52.524;13.340;2023-08-24T12:10:55;30.30;70.10
50067;DHT22;35952;52.524;13.340;2023-08-24T12:13:21;29.90;69.10
50067;DHT22;35952;52.524;13.340;2023-08-24T12:15:47;30.10;71.30
50067;DHT22;35952;52.524;13.340;2023-08-24T12:18:15;30.00;70.20
50067;DHT22;35952;52.524;13.340;2023-08-24T12:20:41;29.70;71.60
50067;DHT22;35952;52.524;13.340;2023-08-24T12:23:07;29.70;72.40
50067;DHT22;35952;52.524;13.340;2023-08-24T12:25:37;29.60;72.80
50067;DHT22;35952;52.524;13.340;2023-08-24T12:30:50;29.60;72.30
50067;DHT22;35952;52.524;13.340;2023-08-24T12:33:25;29.60;71.60
50067;DHT22;35952;52.524;13.340;2023-08-24T12:35:51;29.50;69.50
50067;DHT22;35952;52.524;13.340;2023-08-24T12:38:17;29.40;72.60
50067;DHT22;35952;52.524;13.340;2023-08-24T12:40:42;29.40;73.70
50067;DHT22;35952;52.524;13.340;2023-08-24T12:43:08;29.50;73.10
50067;DHT22;35952;52.524;13.340;2023-08-24T12:45:33;29.50;72.20
50067;DHT22;35952;52.524;13.340;2023-08-24T12:47:59;29.40;71.90
50067;DHT22;35952;52.524;13.340;2023-08-24T12:50:24;29.40;71.70
50067;DHT22;35952;52.524;13.340;2023-08-24T12:52:50;29.10;70.70
50067;DHT22;35952;52.524;13.340;2023-08-24T12:55:20;29.40;70.50
50067;DHT22;35952;52.524;13.340;2023-08-24T12:57:46;28.60;70.80
50067;DHT22;35952;52.524;13.340;2023-08-24T13:00:12;29.10;73.60
50067;DHT22;35952;52.524;13.340;2023-08-24T13:02:37;29.30;72.30
50067;DHT22;35952;52.524;13.340;2023-08-24T13:05:03;29.30;71.60
50067;DHT22;35952;52.524;13.340;2023-08-24T13:07:29;29.50;73.10
50067;DHT22;35952;52.524;13.340;2023-08-24T13:09:55;29.60;73.20
50067;DHT22;35952;52.524;13.340;2023-08-24T13:12:20;29.70;73.70
50067;DHT22;35952;52.524;13.340;2023-08-24T13:14:46;30.10;72.80
50067;DHT22;35952;52.524;13.340;2023-08-24T13:17:12;30.70;71.00
50067;DHT22;35952;52.524;13.340;2023-08-24T13:19:37;31.40;66.70
50067;DHT22;35952;52.524;13.340;2023-08-24T13:22:03;31.20;65.90
50067;DHT22;35952;52.524;13.340;2023-08-24T13:24:29;31.50;66.20
50067;DHT22;35952;52.524;13.340;2023-08-24T13:26:54;31.40;64.20
50067;DHT22;35952;52.524;13.340;2023-08-24T13:29:20;31.40;65.00
50067;DHT22;35952;52.524;13.340;2023-08-24T13:31:45;31.30;67.20
50067;DHT22;35952;52.524;13.340;2023-08-24T13:34:11;31.70;66.10
50067;DHT22;35952;52.524;13.340;2023-08-24T13:36:36;32.40;64.80
50067;DHT22;35952;52.524;13.340;2023-08-24T13:39:02;32.90;64.00
50067;DHT22;35952;52.524;13.340;2023-08-24T13:41:28;34.30;61.30
50067;DHT22;35952;52.524;13.340;2023-08-24T13:43:53;34.90;59.00
50067;DHT22;35952;52.524;13.340;2023-08-24T13:46:18;35.00;58.40
50067;DHT22;35952;52.524;13.340;2023-08-24T13:48:44;34.30;58.70
50067;DHT22;35952;52.524;13.340;2023-08-24T13:51:09;33.40;59.70
50067;DHT22;35952;52.524;13.340;2023-08-24T13:53:37;32.70;60.40
50067;DHT22;35952;52.524;13.340;2023-08-24T13:56:02;32.30;64.20
50067;DHT22;35952;52.524;13.340;2023-08-24T13:58:28;31.90;64.10
50067;DHT22;35952;52.524;13.340;2023-08-24T14:01:00;31.20;64.00
50067;DHT22;35952;52.524;13.340;2023-08-24T14:03:28;31.50;66.30
50067;DHT22;35952;52.524;13.340;2023-08-24T14:05:57;31.60;66.80
50067;DHT22;35952;52.524;13.340;2023-08-24T14:08:23;31.60;65.80
50067;DHT22;35952;52.524;13.340;2023-08-24T14:10:48;31.50;64.60
50067;DHT22;35952;52.524;13.340;2023-08-24T14:13:15;31.40;65.70
50067;DHT22;35952;52.524;13.340;2023-08-24T14:15:40;31.30;64.30
50067;DHT22;35952;52.524;13.340;2023-08-24T14:18:06;30.70;64.10
50067;DHT22;35952;52.524;13.340;2023-08-24T14:20:32;30.40;65.60
50067;DHT22;35952;52.524;13.340;2023-08-24T14:22:58;29.90;66.30
50067;DHT22;35952;52.524;13.340;2023-08-24T14:25:24;29.80;67.40
50067;DHT22;35952;52.524;13.340;2023-08-24T14:27:49;29.80;68.30
50067;DHT22;35952;52.524;13.340;2023-08-24T14:30:15;30.20;67.10
50067;DHT22;35952;52.524;13.340;2023-08-24T14:32:40;31.30;67.00
50067;DHT22;35952;52.524;13.340;2023-08-24T14:35:06;33.20;61.80
50067;DHT22;35952;52.524;13.340;2023-08-24T14:37:32;33.80;58.10
50067;DHT22;35952;52.524;13.340;2023-08-24T14:39:59;35.30;58.20
50067;DHT22;35952;52.524;13.340;2023-08-24T14:42:24;36.40;54.80
50067;DHT22;35952;52.524;13.340;2023-08-24T14:44:50;36.70;54.30
50067;DHT22;35952;52.524;13.340;2023-08-24T14:47:15;36.90;53.10
50067;DHT22;35952;52.524;13.340;2023-08-24T14:49:41;36.70;53.70
50067;DHT22;35952;52.524;13.340;2023-08-24T14:52:06;36.10;55.00
50067;DHT22;35952;52.524;13.340;2023-08-24T14:54:32;35.20;53.70
50067;DHT22;35952;52.524;13.340;2023-08-24T14:56:57;34.30;57.70
50067;DHT22;35952;52.524;13.340;2023-08-24T14:59:24;33.20;57.00
50067;DHT22;35952;52.524;13.340;2023-08-24T15:01:49;32.40;57.00
50067;DHT22;35952;52.524;13.340;2023-08-24T15:04:15;31.80;58.00
50067;DHT22;35952;52.524;13.340;2023-08-24T15:06:40;31.40;60.80
50067;DHT22;35952;52.524;13.340;2023-08-24T15:09:06;31.10;61.00
50067;DHT22;35952;52.524;13.340;2023-08-24T15:11:31;30.60;61.00
50067;DHT22;35952;52.524;13.340;2023-08-24T15:13:57;30.10;63.70
50067;DHT22;35952;52.524;13.340;2023-08-24T15:16:22;30.20;64.50
50067;DHT22;35952;52.524;13.340;2023-08-24T15:18:48;30.00;64.70
50067;DHT22;35952;52.524;13.340;2023-08-24T15:21:14;29.80;66.10